createdAt,value
2022-11-26T00:04:42.932Z,76533.81
2022-11-26T00:14:50.068Z,76531.78
2022-11-26T00:24:55.578Z,76552.03
2022-11-26T00:35:03.046Z,76564.19
2022-11-26T00:45:15.781Z,76558.09
2022-11-26T00:55:38.925Z,76570.25
2022-11-26T01:05:53.044Z,76572.28
2022-11-26T01:16:04.028Z,76568.22
2022-11-26T01:26:07.169Z,76560.13
2022-11-26T01:36:28.097Z,76564.19
2022-11-26T01:46:33.287Z,76572.28
2022-11-26T01:56:40.050Z,76576.31
2022-11-26T02:06:46.092Z,76576.31
2022-11-26T02:17:30.789Z,76576.31
2022-11-26T02:27:38.212Z,76568.22
2022-11-26T02:37:46.726Z,76584.41
2022-11-26T02:47:54.508Z,76594.53
2022-11-26T02:57:57.327Z,76590.50
2022-11-26T03:08:03.325Z,76602.63
2022-11-26T03:18:05.513Z,76600.59
2022-11-26T03:28:10.391Z,76612.75
2022-11-26T03:38:14.853Z,76620.84
2022-11-26T03:48:16.863Z,76614.78
2022-11-26T03:58:21.449Z,76633.00
2022-11-26T04:08:26.126Z,76633.00
2022-11-26T04:18:28.143Z,76633.00
2022-11-26T04:28:30.714Z,76645.16
2022-11-26T04:38:32.792Z,76657.28
2022-11-26T04:48:35.000Z,76665.38
2022-11-26T04:58:37.066Z,76675.50
2022-11-26T05:08:43.656Z,76693.72
2022-11-26T05:18:48.159Z,76703.84
2022-11-26T05:28:52.577Z,76705.88
2022-11-26T05:38:57.529Z,76720.03
2022-11-26T05:49:04.136Z,76726.13
2022-11-26T05:59:08.385Z,76750.41
2022-11-26T06:09:15.717Z,76752.44
2022-11-26T06:19:22.819Z,76780.78
2022-11-26T06:29:28.330Z,76776.72
2022-11-26T06:39:31.603Z,76784.81
2022-11-26T06:49:38.364Z,76794.94
2022-11-26T06:59:40.346Z,76811.13
2022-11-26T07:09:42.443Z,76827.34
2022-11-26T07:19:44.478Z,76784.81
2022-11-26T07:29:46.608Z,76859.72
2022-11-26T07:39:53.917Z,76896.16
2022-11-26T07:49:56.203Z,76922.47
2022-11-26T07:59:58.192Z,76948.78
2022-11-26T08:10:04.092Z,76928.56
2022-11-26T08:20:09.368Z,76940.69
2022-11-26T08:30:14.709Z,76940.69
2022-11-26T08:40:20.654Z,76944.75
2022-11-26T08:50:26.063Z,76965.00
2022-11-26T09:00:33.614Z,76958.91
2022-11-26T09:10:38.925Z,76952.84
2022-11-26T09:20:41.473Z,76948.78
2022-11-26T09:30:45.847Z,76952.84
2022-11-26T09:41:05.529Z,76916.41
2022-11-26T09:51:10.803Z,76926.53
2022-11-26T10:01:20.904Z,76926.53
2022-11-26T10:12:04.641Z,76918.44
2022-11-26T10:22:19.273Z,76936.66
2022-11-26T10:32:26.255Z,76924.50
2022-11-26T10:42:55.040Z,76926.53
2022-11-26T10:53:06.038Z,76944.75
2022-11-26T11:03:59.342Z,76926.53
2022-11-26T11:13:48.667Z,76973.09
2022-11-26T11:24:08.208Z,76954.88
2022-11-26T11:34:22.445Z,76973.09
2022-11-26T11:44:39.679Z,76908.31
2022-11-26T11:55:04.512Z,76948.78
2022-11-26T12:05:36.797Z,76965.00
2022-11-26T12:15:45.276Z,76944.75
2022-11-26T12:25:52.555Z,76965.00
2022-11-26T12:36:03.337Z,76987.25
2022-11-26T12:46:14.931Z,77017.63
2022-11-26T12:56:33.348Z,77021.69
2022-11-26T13:06:45.824Z,77029.78
2022-11-26T13:16:58.729Z,77039.91
2022-11-26T13:27:25.925Z,77058.13
2022-11-26T13:37:39.681Z,77068.25
2022-11-26T13:47:45.795Z,77078.34
2022-11-26T13:57:51.537Z,77090.50
2022-11-26T14:08:34.224Z,77092.53
2022-11-26T14:18:51.890Z,77118.84
2022-11-26T14:29:09.077Z,77126.94
2022-11-26T14:39:14.820Z,77131.00
2022-11-26T14:49:41.330Z,77135.03
2022-11-26T15:00:01.503Z,77155.28
2022-11-26T15:10:14.510Z,77175.53
2022-11-26T15:20:17.820Z,77201.84
2022-11-26T15:30:25.973Z,77209.94
2022-11-26T15:40:47.844Z,77211.97
2022-11-26T15:50:55.055Z,77175.53
2022-11-26T16:01:00.334Z,77197.81
2022-11-26T16:11:20.830Z,77183.63
2022-11-26T16:21:29.289Z,77151.25
2022-11-26T16:31:31.776Z,77179.59
2022-11-26T16:41:36.132Z,77153.28
2022-11-26T16:51:38.164Z,77199.84
2022-11-26T17:01:40.292Z,77228.19
2022-11-26T17:11:42.603Z,77256.53
2022-11-26T17:21:44.865Z,77252.47
2022-11-26T17:31:49.915Z,77266.66
2022-11-26T17:41:51.964Z,77288.91
2022-11-26T17:51:56.356Z,77297.00
2022-11-26T18:01:58.813Z,77295.00
2022-11-26T18:12:01.768Z,77286.88
2022-11-26T18:22:08.548Z,77175.53
2022-11-26T18:32:13.696Z,77244.38
2022-11-26T18:42:35.997Z,77258.53
2022-11-26T18:52:39.026Z,77268.66
2022-11-26T19:02:41.284Z,77278.78
2022-11-26T19:12:43.513Z,77260.56
2022-11-26T19:22:50.493Z,77266.66
2022-11-26T19:32:53.892Z,77284.88
2022-11-26T19:42:56.108Z,77301.06
2022-11-26T19:52:58.261Z,77284.88
2022-11-26T20:03:02.606Z,77268.66
2022-11-26T20:13:08.182Z,77284.88
2022-11-26T20:23:12.629Z,77297.00
2022-11-26T20:33:19.743Z,77295.00
2022-11-26T20:43:21.958Z,77288.91
2022-11-26T20:53:23.986Z,77284.88
2022-11-26T21:03:26.856Z,77260.56
2022-11-26T21:13:28.991Z,77284.88
2022-11-26T21:23:31.123Z,77280.81
2022-11-26T21:33:33.449Z,77276.75
2022-11-26T21:43:41.914Z,77301.06
2022-11-26T21:53:47.268Z,77329.41
2022-11-26T22:03:55.766Z,77309.16
2022-11-26T22:13:58.268Z,77321.31
2022-11-26T22:24:04.723Z,77333.44
2022-11-26T22:34:10.421Z,77349.66
2022-11-26T22:44:13.941Z,77357.75
2022-11-26T22:54:16.719Z,77260.56
2022-11-26T23:04:21.078Z,77301.06
2022-11-26T23:14:26.875Z,77317.25
2022-11-26T23:24:30.277Z,77323.34
2022-11-26T23:34:34.022Z,77323.34
2022-11-26T23:44:38.484Z,77329.41
2022-11-26T23:54:46.584Z,77317.25
